createdAt,value
2023-02-24T00:02:01.301Z,41.88
2023-02-24T00:04:34.942Z,42.22
2023-02-24T00:07:03.090Z,40.67
2023-02-24T00:09:35.829Z,24.83
2023-02-24T00:12:13.317Z,34.92
2023-02-24T00:14:43.105Z,39.55
2023-02-24T00:17:14.720Z,31.05
2023-02-24T00:19:42.495Z,35.05
2023-02-24T00:22:10.076Z,36.20
2023-02-24T00:24:39.504Z,46.00
2023-02-24T00:27:12.475Z,33.03
2023-02-24T00:29:42.244Z,31.30
2023-02-24T00:32:13.163Z,48.53
2023-02-24T00:34:41.897Z,42.92
2023-02-24T00:37:15.577Z,34.17
2023-02-24T00:39:45.084Z,42.20
2023-02-24T00:42:12.247Z,41.75
2023-02-24T00:44:45.812Z,41.35
2023-02-24T00:47:19.118Z,40.33
2023-02-24T00:49:46.497Z,43.72
2023-02-24T00:52:19.275Z,44.35
2023-02-24T00:54:52.650Z,48.08
2023-02-24T00:57:21.628Z,46.50
2023-02-24T00:59:51.935Z,37.53
2023-02-24T01:02:22.702Z,41.72
2023-02-24T01:04:54.649Z,38.35
2023-02-24T01:07:22.598Z,32.13
2023-02-24T01:09:51.203Z,15.35
2023-02-24T01:12:38.584Z,10.63
2023-02-24T01:15:09.506Z,6.38
2023-02-24T01:17:39.556Z,5.60
2023-02-24T01:20:19.024Z,2.88
2023-02-24T01:22:49.361Z,14.05
2023-02-24T01:25:17.996Z,4.93
2023-02-24T01:27:50.420Z,3.47
2023-02-24T01:30:18.660Z,5.22
2023-02-24T01:32:47.564Z,2.15
2023-02-24T01:35:15.253Z,4.15
2023-02-24T01:37:43.734Z,3.17
2023-02-24T01:40:19.003Z,7.75
2023-02-24T01:42:47.924Z,4.05
2023-02-24T01:45:25.719Z,1.48
2023-02-24T01:47:54.602Z,4.63
2023-02-24T01:50:26.399Z,2.78
2023-02-24T01:52:58.634Z,2.35
2023-02-24T01:55:35.355Z,5.05
2023-02-24T01:58:09.771Z,2.28
2023-02-24T02:00:45.118Z,1.90
2023-02-24T02:03:36.987Z,2.25
2023-02-24T02:06:11.425Z,0.70
2023-02-24T02:08:41.431Z,4.77
2023-02-24T02:11:13.490Z,1.42
2023-02-24T02:13:44.561Z,2.15
2023-02-24T02:16:43.695Z,1.63
2023-02-24T02:19:13.567Z,5.15
2023-02-24T02:22:05.712Z,5.25
2023-02-24T02:25:00.453Z,3.35
2023-02-24T02:27:29.529Z,0.80
2023-02-24T02:30:09.415Z,1.70
2023-02-24T02:33:07.426Z,0.47
2023-02-24T02:36:00.792Z,2.67
2023-02-24T02:38:38.119Z,0.75
2023-02-24T02:41:31.675Z,3.85
2023-02-24T02:44:14.610Z,0.50
2023-02-24T02:46:47.079Z,1.48
2023-02-24T02:49:21.965Z,0.52
2023-02-24T02:51:56.957Z,0.43
2023-02-24T02:54:29.246Z,0.95
2023-02-24T02:57:01.491Z,2.05
2023-02-24T02:59:31.595Z,0.63
2023-02-24T03:02:11.857Z,0.77
2023-02-24T03:04:43.670Z,0.88
2023-02-24T03:07:14.557Z,1.60
2023-02-24T03:09:46.390Z,0.80
2023-02-24T03:12:19.386Z,4.38
2023-02-24T03:14:57.561Z,1.63
2023-02-24T03:17:28.953Z,5.28
2023-02-24T03:20:15.117Z,2.75
2023-02-24T03:23:07.372Z,1.60
2023-02-24T03:25:53.472Z,2.97
2023-02-24T03:28:30.458Z,5.18
2023-02-24T03:31:23.045Z,5.05
2023-02-24T03:34:03.856Z,2.28
2023-02-24T03:36:33.316Z,1.90
2023-02-24T03:39:02.208Z,3.50
2023-02-24T03:41:41.233Z,1.42
2023-02-24T03:44:11.704Z,2.58
2023-02-24T03:46:42.733Z,1.38
2023-02-24T03:49:12.658Z,6.20
2023-02-24T03:51:44.966Z,1.63
2023-02-24T03:54:44.318Z,4.13
2023-02-24T03:57:23.347Z,2.10
2023-02-24T04:00:22.862Z,2.30
2023-02-24T04:03:03.618Z,1.67
2023-02-24T04:05:35.382Z,4.80
2023-02-24T04:08:07.891Z,1.10
2023-02-24T04:10:52.744Z,1.45
2023-02-24T04:13:43.376Z,1.00
2023-02-24T04:16:29.185Z,4.85
2023-02-24T04:19:04.023Z,2.60
2023-02-24T04:21:37.258Z,1.77
2023-02-24T04:24:11.594Z,1.85
2023-02-24T04:26:40.793Z,2.00
2023-02-24T04:29:11.664Z,2.78
2023-02-24T04:31:42.724Z,1.30
2023-02-24T04:34:09.921Z,1.65
2023-02-24T04:36:39.757Z,1.90
2023-02-24T04:39:07.830Z,3.13
2023-02-24T04:41:35.902Z,1.73
2023-02-24T04:44:02.830Z,6.43
2023-02-24T04:46:32.669Z,1.10
2023-02-24T04:49:02.327Z,1.58
2023-02-24T04:51:31.915Z,1.55
2023-02-24T04:53:58.801Z,1.83
2023-02-24T04:56:25.778Z,0.80
2023-02-24T04:58:52.648Z,1.50
2023-02-24T05:01:19.821Z,1.23
2023-02-24T05:03:47.795Z,1.02
2023-02-24T05:06:16.786Z,0.88
2023-02-24T05:08:44.147Z,0.98
2023-02-24T05:11:18.537Z,1.30
2023-02-24T05:13:46.173Z,1.20
2023-02-24T05:16:16.868Z,1.25
2023-02-24T05:18:44.903Z,2.17
2023-02-24T05:21:33.991Z,0.75
2023-02-24T05:24:07.063Z,3.35
2023-02-24T05:26:37.156Z,1.60
2023-02-24T05:29:06.806Z,2.45
2023-02-24T05:31:34.653Z,1.27
2023-02-24T05:34:07.845Z,1.83
2023-02-24T05:36:40.096Z,4.13
2023-02-24T05:39:08.146Z,1.20
2023-02-24T05:41:38.840Z,1.70
2023-02-24T05:44:10.950Z,1.20
2023-02-24T05:46:40.852Z,5.07
2023-02-24T05:49:14.907Z,5.25
2023-02-24T05:51:54.853Z,2.25
2023-02-24T05:54:26.030Z,1.85
2023-02-24T05:56:53.015Z,2.58
2023-02-24T05:59:21.657Z,1.90
2023-02-24T06:01:53.396Z,1.63
2023-02-24T06:04:39.360Z,1.80
2023-02-24T06:07:13.668Z,2.95
2023-02-24T06:09:45.145Z,2.35
2023-02-24T06:12:17.021Z,2.38
2023-02-24T06:14:45.221Z,2.22
2023-02-24T06:17:12.631Z,2.05
2023-02-24T06:19:41.362Z,3.42
2023-02-24T06:22:12.152Z,6.07
2023-02-24T06:24:44.362Z,4.78
2023-02-24T06:27:17.986Z,4.47
2023-02-24T06:29:46.568Z,5.38
2023-02-24T06:32:13.485Z,2.85
2023-02-24T06:34:41.337Z,6.75
2023-02-24T06:37:11.106Z,3.83
2023-02-24T06:39:37.974Z,2.72
2023-02-24T06:42:05.966Z,5.00
2023-02-24T06:44:34.074Z,3.85
2023-02-24T06:47:01.641Z,4.63
2023-02-24T06:49:29.641Z,4.78
2023-02-24T06:51:58.160Z,2.72
2023-02-24T06:54:30.658Z,3.20
2023-02-24T06:57:00.620Z,4.10
2023-02-24T06:59:30.476Z,3.05
2023-02-24T07:01:59.687Z,4.65
2023-02-24T07:04:28.889Z,3.42
2023-02-24T07:07:03.671Z,7.13
2023-02-24T07:09:32.202Z,4.68
2023-02-24T07:12:02.705Z,3.08
2023-02-24T07:14:33.464Z,2.78
2023-02-24T07:17:00.730Z,3.90
2023-02-24T07:19:30.226Z,4.75
2023-02-24T07:22:03.575Z,4.55
2023-02-24T07:24:33.645Z,8.23
2023-02-24T07:27:06.350Z,3.25
2023-02-24T07:29:35.075Z,6.68
2023-02-24T07:32:05.838Z,8.77
2023-02-24T07:34:34.063Z,4.28
2023-02-24T07:37:08.321Z,3.08
2023-02-24T07:39:39.745Z,11.27
2023-02-24T07:42:13.494Z,5.65
2023-02-24T07:44:46.643Z,4.85
2023-02-24T07:47:16.149Z,4.95
2023-02-24T07:49:43.820Z,10.02
2023-02-24T07:52:11.782Z,4.07
2023-02-24T07:54:39.488Z,6.40
2023-02-24T07:57:14.136Z,4.68
2023-02-24T07:59:48.774Z,3.58
2023-02-24T08:02:16.939Z,5.75
2023-02-24T08:04:50.414Z,3.33
2023-02-24T08:07:25.265Z,5.97
2023-02-24T08:10:14.413Z,5.20
2023-02-24T08:12:45.223Z,5.38
2023-02-24T08:15:23.826Z,4.50
2023-02-24T08:17:59.750Z,5.22
2023-02-24T08:20:47.960Z,5.10
2023-02-24T08:23:14.937Z,8.93
2023-02-24T08:25:44.650Z,3.45
2023-02-24T08:28:12.415Z,4.70
2023-02-24T08:30:46.289Z,3.45
2023-02-24T08:33:19.967Z,4.80
2023-02-24T08:35:52.358Z,11.40
2023-02-24T08:38:24.301Z,8.45
2023-02-24T08:40:55.203Z,3.95
2023-02-24T08:43:31.163Z,9.45
2023-02-24T08:46:18.745Z,4.47
2023-02-24T08:48:50.216Z,3.53
2023-02-24T08:51:22.827Z,7.57
2023-02-24T08:53:54.760Z,5.72
2023-02-24T08:56:28.990Z,4.13
2023-02-24T09:01:35.585Z,5.85
2023-02-24T09:04:06.912Z,4.00
2023-02-24T09:06:36.872Z,7.18
2023-02-24T09:09:17.666Z,4.78
2023-02-24T09:11:50.330Z,3.38
2023-02-24T09:14:27.011Z,3.70
2023-02-24T09:17:11.644Z,4.20
2023-02-24T09:19:48.134Z,3.47
2023-02-24T09:22:32.718Z,4.38
2023-02-24T09:25:19.055Z,3.88
2023-02-24T09:28:10.567Z,4.43
2023-02-24T09:30:51.948Z,3.38
2023-02-24T09:33:22.437Z,4.47
2023-02-24T09:36:15.920Z,6.60
2023-02-24T09:39:01.281Z,2.80
2023-02-24T09:41:53.469Z,9.80
2023-02-24T09:44:42.623Z,3.40
2023-02-24T09:47:31.438Z,3.00
2023-02-24T09:50:14.385Z,6.22
2023-02-24T09:52:41.711Z,3.15
2023-02-24T09:55:25.379Z,3.47
2023-02-24T09:58:18.652Z,3.22
2023-02-24T10:01:21.741Z,6.30
2023-02-24T10:04:14.829Z,5.65
2023-02-24T10:07:14.543Z,2.83
2023-02-24T10:09:46.937Z,5.53
2023-02-24T10:12:19.272Z,3.45
2023-02-24T10:15:32.317Z,2.97
2023-02-24T10:18:13.384Z,5.65
2023-02-24T10:20:45.803Z,4.53
2023-02-24T10:23:12.717Z,6.15
2023-02-24T10:25:54.339Z,3.35
2023-02-24T10:28:38.011Z,3.47
2023-02-24T10:31:26.918Z,2.92
2023-02-24T10:34:06.356Z,4.28
2023-02-24T10:36:38.253Z,7.30
2023-02-24T10:39:20.832Z,3.00
2023-02-24T10:41:57.741Z,3.00
2023-02-24T10:44:39.132Z,3.08
2023-02-24T10:47:12.076Z,5.72
2023-02-24T10:49:45.091Z,5.93
2023-02-24T10:52:33.517Z,5.88
2023-02-24T10:55:26.471Z,6.70
2023-02-24T10:58:06.010Z,9.52
2023-02-24T11:00:59.724Z,4.32
2023-02-24T11:03:57.772Z,4.55
2023-02-24T11:06:42.290Z,4.07
2023-02-24T11:09:30.377Z,3.83
2023-02-24T11:12:19.125Z,5.85
2023-02-24T11:15:09.334Z,4.28
2023-02-24T11:17:38.259Z,7.25
2023-02-24T11:20:16.001Z,3.53
2023-02-24T11:22:45.897Z,6.80
2023-02-24T11:25:36.545Z,8.00
2023-02-24T11:28:04.808Z,5.97
2023-02-24T11:31:04.892Z,4.78
2023-02-24T11:33:31.867Z,3.03
2023-02-24T11:36:12.948Z,3.75
2023-02-24T11:39:15.446Z,5.35
2023-02-24T11:41:53.331Z,6.68
2023-02-24T11:44:58.281Z,3.30
2023-02-24T11:47:57.462Z,3.67
2023-02-24T11:50:30.859Z,3.22
2023-02-24T11:53:01.658Z,4.47
2023-02-24T11:55:51.559Z,5.80
2023-02-24T11:58:27.508Z,4.90
2023-02-24T12:01:01.580Z,3.38
2023-02-24T12:03:34.497Z,4.82
2023-02-24T12:06:17.366Z,3.67
2023-02-24T12:08:49.585Z,3.97
2023-02-24T12:11:45.368Z,4.10
2023-02-24T12:14:35.393Z,5.50
2023-02-24T12:17:18.326Z,4.07
2023-02-24T12:20:15.989Z,3.33
2023-02-24T12:23:10.752Z,3.40
2023-02-24T12:26:09.196Z,4.43
2023-02-24T12:29:16.290Z,2.95
2023-02-24T12:32:00.721Z,4.85
2023-02-24T12:34:46.220Z,2.90
2023-02-24T12:37:46.728Z,6.35
2023-02-24T12:40:16.472Z,3.38
2023-02-24T12:42:51.818Z,3.63
2023-02-24T12:46:00.094Z,2.90
2023-02-24T12:48:45.889Z,3.45
2023-02-24T12:51:50.168Z,2.45
2023-02-24T12:54:24.781Z,5.93
2023-02-24T12:57:15.754Z,10.43
2023-02-24T12:59:42.906Z,4.82
2023-02-24T13:02:27.933Z,4.90
2023-02-24T13:05:13.601Z,2.17
2023-02-24T13:07:43.305Z,5.38
2023-02-24T13:10:32.170Z,4.20
2023-02-24T13:13:28.254Z,4.43
2023-02-24T13:15:57.525Z,4.40
2023-02-24T13:18:30.743Z,2.83
2023-02-24T13:21:24.839Z,2.53
2023-02-24T13:24:01.221Z,2.05
2023-02-24T13:26:31.476Z,4.72
2023-02-24T13:29:19.174Z,2.20
2023-02-24T13:31:49.565Z,2.45
2023-02-24T13:34:44.099Z,1.80
2023-02-24T13:37:11.627Z,2.17
2023-02-24T13:39:44.438Z,3.55
2023-02-24T13:42:22.032Z,4.30
2023-02-24T13:45:10.471Z,2.30
2023-02-24T13:48:04.012Z,1.70
2023-02-24T13:50:58.995Z,24.85
2023-02-24T13:53:37.968Z,3.25
2023-02-24T13:56:18.759Z,1.90
2023-02-24T13:59:16.812Z,2.08
2023-02-24T14:02:04.118Z,4.30
2023-02-24T14:04:33.496Z,2.60
2023-02-24T14:07:04.848Z,2.50
2023-02-24T14:09:38.010Z,5.32
2023-02-24T14:12:13.212Z,2.35
2023-02-24T14:14:43.107Z,2.47
2023-02-24T14:17:39.434Z,1.60
2023-02-24T14:20:22.018Z,2.50
2023-02-24T14:22:59.011Z,2.50
2023-02-24T14:25:38.864Z,2.25
2023-02-24T14:28:06.224Z,3.08
2023-02-24T14:30:37.133Z,2.25
2023-02-24T14:33:07.054Z,4.88
2023-02-24T14:35:42.077Z,4.63
2023-02-24T14:38:30.728Z,2.45
2023-02-24T14:40:58.434Z,1.95
2023-02-24T14:43:25.834Z,3.78
2023-02-24T14:45:54.417Z,1.67
2023-02-24T14:48:26.068Z,2.17
2023-02-24T14:50:58.084Z,2.80
2023-02-24T14:53:28.382Z,2.60
2023-02-24T14:55:57.455Z,3.78
2023-02-24T14:58:32.965Z,3.90
2023-02-24T15:01:05.749Z,3.95
2023-02-24T15:03:48.764Z,7.60
2023-02-24T15:06:28.872Z,2.83
2023-02-24T15:09:01.469Z,3.35
2023-02-24T15:11:31.496Z,5.95
2023-02-24T15:14:06.269Z,3.45
2023-02-24T15:16:39.928Z,5.32
2023-02-24T15:19:29.926Z,4.07
2023-02-24T15:21:57.615Z,2.33
2023-02-24T15:24:29.912Z,7.07
2023-02-24T15:26:59.996Z,4.22
2023-02-24T15:29:30.792Z,3.22
2023-02-24T15:32:00.384Z,2.40
2023-02-24T15:34:35.104Z,4.72
2023-02-24T15:39:34.330Z,3.47
2023-02-24T15:42:23.811Z,4.45
2023-02-24T15:44:53.365Z,3.88
2023-02-24T15:47:26.483Z,3.50
2023-02-24T15:49:53.388Z,5.05
2023-02-24T15:52:23.894Z,2.90
2023-02-24T15:54:51.298Z,3.88
2023-02-24T15:57:20.235Z,6.22
2023-02-24T15:59:48.457Z,4.13
2023-02-24T16:02:21.404Z,5.55
2023-02-24T16:04:49.346Z,4.93
2023-02-24T16:07:20.066Z,2.75
2023-02-24T16:09:49.076Z,3.50
2023-02-24T16:12:35.952Z,4.05
2023-02-24T16:15:06.955Z,3.65
2023-02-24T16:17:39.233Z,3.58
2023-02-24T16:20:12.657Z,3.20
2023-02-24T16:22:39.594Z,2.95
2023-02-24T16:25:07.581Z,3.38
2023-02-24T16:27:34.786Z,3.42
2023-02-24T16:30:01.937Z,3.80
2023-02-24T16:32:29.125Z,2.60
2023-02-24T16:34:57.304Z,5.25
2023-02-24T16:37:29.793Z,2.95
2023-02-24T16:39:59.279Z,4.18
2023-02-24T16:42:26.320Z,3.85
2023-02-24T16:44:53.328Z,3.85
2023-02-24T16:47:24.623Z,3.40
2023-02-24T16:49:56.299Z,3.53
2023-02-24T16:52:25.117Z,5.72
2023-02-24T16:54:52.389Z,2.92
2023-02-24T16:57:19.422Z,3.22
2023-02-24T16:59:46.650Z,6.93
2023-02-24T17:02:21.877Z,6.13
2023-02-24T17:04:50.142Z,6.10
2023-02-24T17:07:21.364Z,5.38
2023-02-24T17:09:48.403Z,4.05
2023-02-24T17:12:21.729Z,4.28
2023-02-24T17:14:49.242Z,4.87
2023-02-24T17:17:16.223Z,2.90
2023-02-24T17:19:43.348Z,5.00
2023-02-24T17:22:10.513Z,3.80
2023-02-24T17:24:37.440Z,4.95
2023-02-24T17:27:04.822Z,3.58
2023-02-24T17:29:31.657Z,6.25
2023-02-24T17:31:58.687Z,3.00
2023-02-24T17:34:25.773Z,4.07
2023-02-24T17:36:53.539Z,2.85
2023-02-24T17:39:20.468Z,7.82
2023-02-24T17:41:47.360Z,4.18
2023-02-24T17:44:14.459Z,3.10
2023-02-24T17:46:41.376Z,3.42
2023-02-24T17:49:08.665Z,4.25
2023-02-24T17:51:35.566Z,6.88
2023-02-24T17:54:02.507Z,5.03
2023-02-24T17:56:29.578Z,7.55
2023-02-24T17:58:59.049Z,3.45
2023-02-24T18:01:29.022Z,5.00
2023-02-24T18:03:57.608Z,3.28
2023-02-24T18:06:25.220Z,4.22
2023-02-24T18:08:52.183Z,5.95
2023-02-24T18:11:20.359Z,5.82
2023-02-24T18:13:50.922Z,3.35
2023-02-24T18:16:18.126Z,7.75
2023-02-24T18:18:45.259Z,8.77
2023-02-24T18:21:12.359Z,5.78
2023-02-24T18:23:40.621Z,5.43
2023-02-24T18:26:10.543Z,3.72
2023-02-24T18:28:38.806Z,10.10
2023-02-24T18:31:17.732Z,9.30
2023-02-24T18:33:45.403Z,4.57
2023-02-24T18:36:12.909Z,4.28
2023-02-24T18:38:39.996Z,4.10
2023-02-24T18:41:09.713Z,3.90
2023-02-24T18:43:37.107Z,7.50
2023-02-24T18:46:06.836Z,5.95
2023-02-24T18:48:35.061Z,4.53
2023-02-24T18:51:02.512Z,5.15
2023-02-24T18:53:33.809Z,6.25
2023-02-24T18:56:07.173Z,4.63
2023-02-24T18:58:34.717Z,5.53
2023-02-24T19:01:01.673Z,8.23
2023-02-24T19:03:28.680Z,4.55
2023-02-24T19:05:55.616Z,4.85
2023-02-24T19:08:22.567Z,7.10
2023-02-24T19:10:49.496Z,5.30
2023-02-24T19:13:16.441Z,6.22
2023-02-24T19:15:44.928Z,4.70
2023-02-24T19:18:12.073Z,7.93
2023-02-24T19:20:42.994Z,6.78
2023-02-24T19:23:10.852Z,5.60
2023-02-24T19:25:37.777Z,13.48
2023-02-24T19:28:04.855Z,11.77
2023-02-24T19:30:32.017Z,6.47
2023-02-24T19:32:59.545Z,4.32
2023-02-24T19:35:26.571Z,4.75
2023-02-24T19:37:53.443Z,6.18
2023-02-24T19:40:20.646Z,5.03
2023-02-24T19:42:49.496Z,8.20
2023-02-24T19:45:17.148Z,5.53
2023-02-24T19:47:47.034Z,5.75
2023-02-24T19:50:15.641Z,7.15
2023-02-24T19:52:42.957Z,8.00
2023-02-24T19:55:11.693Z,5.32
2023-02-24T19:57:39.158Z,8.52
2023-02-24T20:00:07.286Z,6.75
2023-02-24T20:02:39.704Z,10.77
2023-02-24T20:05:07.734Z,6.13
2023-02-24T20:07:35.033Z,7.00
2023-02-24T20:10:02.156Z,6.38
2023-02-24T20:12:29.081Z,6.18
2023-02-24T20:14:56.186Z,7.10
2023-02-24T20:17:23.124Z,5.72
2023-02-24T20:19:50.169Z,9.75
2023-02-24T20:22:18.398Z,7.25
2023-02-24T20:24:45.442Z,6.78
2023-02-24T20:27:12.795Z,8.95
2023-02-24T20:29:39.750Z,6.95
2023-02-24T20:32:06.837Z,8.02
2023-02-24T20:34:36.725Z,8.63
2023-02-24T20:37:05.527Z,9.80
2023-02-24T20:39:33.284Z,11.73
2023-02-24T20:42:01.501Z,8.95
2023-02-24T20:44:28.878Z,11.55
2023-02-24T20:46:55.795Z,8.43
2023-02-24T20:49:22.693Z,6.57
2023-02-24T20:51:49.776Z,11.40
2023-02-24T20:54:17.529Z,7.50
2023-02-24T20:56:46.086Z,7.97
2023-02-24T20:59:18.691Z,10.13
2023-02-24T21:01:47.963Z,7.75
2023-02-24T21:04:17.259Z,7.93
2023-02-24T21:06:44.288Z,7.03
2023-02-24T21:09:12.212Z,8.18
2023-02-24T21:11:39.408Z,8.32
2023-02-24T21:14:07.232Z,9.07
2023-02-24T21:16:37.396Z,11.77
2023-02-24T21:19:04.475Z,9.43
2023-02-24T21:21:31.357Z,7.80
2023-02-24T21:23:58.182Z,8.38
2023-02-24T21:26:27.076Z,9.98
2023-02-24T21:28:57.418Z,7.28
2023-02-24T21:31:25.902Z,7.43
2023-02-24T21:33:53.711Z,7.70
2023-02-24T21:36:24.179Z,8.55
2023-02-24T21:38:53.018Z,12.18
2023-02-24T21:41:20.183Z,7.05
2023-02-24T21:43:47.382Z,8.32
2023-02-24T21:46:15.863Z,13.38
2023-02-24T21:48:43.198Z,11.00
2023-02-24T21:51:12.810Z,13.70
2023-02-24T21:53:43.682Z,8.70
2023-02-24T21:56:18.172Z,8.55
2023-02-24T21:58:54.526Z,11.18
2023-02-24T22:01:26.875Z,11.73
2023-02-24T22:03:59.702Z,10.75
2023-02-24T22:06:31.483Z,9.32
2023-02-24T22:09:00.228Z,16.77
2023-02-24T22:11:27.704Z,16.88
2023-02-24T22:13:54.697Z,13.20
2023-02-24T22:16:23.874Z,12.38
2023-02-24T22:18:52.248Z,13.73
2023-02-24T22:21:22.624Z,9.52
2023-02-24T22:23:52.397Z,11.73
2023-02-24T22:26:20.562Z,11.73
2023-02-24T22:28:47.854Z,10.27
2023-02-24T22:31:17.972Z,21.50
2023-02-24T22:33:46.235Z,15.57
2023-02-24T22:36:16.107Z,12.45
2023-02-24T22:38:44.133Z,13.27
2023-02-24T22:41:15.010Z,11.88
2023-02-24T22:43:42.020Z,9.27
2023-02-24T22:46:12.324Z,11.57
2023-02-24T22:48:39.658Z,13.65
2023-02-24T22:51:08.838Z,13.48
2023-02-24T22:53:38.756Z,9.82
2023-02-24T22:56:06.866Z,10.82
2023-02-24T22:58:33.855Z,9.60
2023-02-24T23:01:00.893Z,10.35
2023-02-24T23:03:33.292Z,12.50
2023-02-24T23:06:09.263Z,11.30
2023-02-24T23:08:39.328Z,10.38
2023-02-24T23:11:12.454Z,11.68
2023-02-24T23:13:40.994Z,13.20
2023-02-24T23:16:11.317Z,10.85
2023-02-24T23:18:38.383Z,13.52
2023-02-24T23:21:11.517Z,11.55
2023-02-24T23:23:39.084Z,15.15
2023-02-24T23:26:06.672Z,11.32
2023-02-24T23:28:34.005Z,10.55
2023-02-24T23:31:01.047Z,11.32
2023-02-24T23:33:28.327Z,13.65
2023-02-24T23:35:55.330Z,15.68
2023-02-24T23:38:22.434Z,14.77
2023-02-24T23:40:50.831Z,10.82
2023-02-24T23:43:18.641Z,14.02
2023-02-24T23:45:46.146Z,13.20
2023-02-24T23:48:14.454Z,14.27
2023-02-24T23:50:42.737Z,11.80
2023-02-24T23:53:10.794Z,14.93
2023-02-24T23:55:40.922Z,13.13
2023-02-24T23:58:08.384Z,11.65
